sensor_id;sensor_type;location;lat;lon;timestamp;P1;durP1;ratioP1;P2;durP2;ratioP2
49548;SDS011;35450;44.518;7.466;2024-01-30T06:35:50;65.80;;;33.33;;
49548;SDS011;35450;44.518;7.466;2024-01-30T06:38:54;63.50;;;33.17;;
49548;SDS011;35450;44.518;7.466;2024-01-30T06:41:58;60.88;;;31.63;;
49548;SDS011;35450;44.518;7.466;2024-01-30T06:45:02;64.57;;;32.42;;
49548;SDS011;35450;44.518;7.466;2024-01-30T06:48:07;59.13;;;32.80;;
49548;SDS011;35450;44.518;7.466;2024-01-30T06:51:11;68.85;;;32.97;;
49548;SDS011;35450;44.518;7.466;2024-01-30T06:54:16;76.60;;;38.53;;
49548;SDS011;35450;44.518;7.466;2024-01-30T06:57:20;65.80;;;35.13;;
49548;SDS011;35450;44.518;7.466;2024-01-30T07:00:24;58.38;;;31.60;;
49548;SDS011;35450;44.518;7.466;2024-01-30T07:03:28;60.13;;;30.70;;
49548;SDS011;35450;44.518;7.466;2024-01-30T07:06:32;59.60;;;32.05;;
49548;SDS011;35450;44.518;7.466;2024-01-30T07:09:36;64.93;;;32.47;;
49548;SDS011;35450;44.518;7.466;2024-01-30T07:12:40;77.72;;;37.78;;
49548;SDS011;35450;44.518;7.466;2024-01-30T07:15:44;67.50;;;36.10;;
49548;SDS011;35450;44.518;7.466;2024-01-30T07:18:48;96.70;;;48.65;;
49548;SDS011;35450;44.518;7.466;2024-01-30T07:21:52;57.78;;;31.27;;
49548;SDS011;35450;44.518;7.466;2024-01-30T07:24:57;57.42;;;30.92;;
49548;SDS011;35450;44.518;7.466;2024-01-30T07:28:02;174.93;;;84.20;;
49548;SDS011;35450;44.518;7.466;2024-01-30T07:31:05;141.90;;;69.80;;
49548;SDS011;35450;44.518;7.466;2024-01-30T07:34:09;170.52;;;82.15;;
49548;SDS011;35450;44.518;7.466;2024-01-30T07:37:13;85.72;;;45.25;;
49548;SDS011;35450;44.518;7.466;2024-01-30T07:40:19;77.95;;;38.50;;
49548;SDS011;35450;44.518;7.466;2024-01-30T07:43:23;188.45;;;100.43;;
49548;SDS011;35450;44.518;7.466;2024-01-30T07:46:27;136.73;;;74.75;;
49548;SDS011;35450;44.518;7.466;2024-01-30T07:49:34;115.25;;;61.83;;
49548;SDS011;35450;44.518;7.466;2024-01-30T07:52:38;101.93;;;53.75;;
49548;SDS011;35450;44.518;7.466;2024-01-30T07:55:43;82.40;;;44.33;;
49548;SDS011;35450;44.518;7.466;2024-01-30T07:58:50;100.28;;;48.30;;
49548;SDS011;35450;44.518;7.466;2024-01-30T08:01:54;89.10;;;47.35;;
49548;SDS011;35450;44.518;7.466;2024-01-30T08:04:58;91.05;;;45.88;;
49548;SDS011;35450;44.518;7.466;2024-01-30T08:08:02;83.82;;;45.05;;
49548;SDS011;35450;44.518;7.466;2024-01-30T08:11:06;85.45;;;44.17;;
49548;SDS011;35450;44.518;7.466;2024-01-30T08:14:11;81.57;;;44.10;;
49548;SDS011;35450;44.518;7.466;2024-01-30T08:17:17;86.53;;;44.95;;
49548;SDS011;35450;44.518;7.466;2024-01-30T08:20:21;84.15;;;46.10;;
49548;SDS011;35450;44.518;7.466;2024-01-30T08:23:25;83.03;;;43.17;;
49548;SDS011;35450;44.518;7.466;2024-01-30T08:26:29;97.10;;;47.80;;
49548;SDS011;35450;44.518;7.466;2024-01-30T08:29:34;86.13;;;44.88;;
49548;SDS011;35450;44.518;7.466;2024-01-30T08:32:38;81.78;;;44.70;;
49548;SDS011;35450;44.518;7.466;2024-01-30T08:35:42;87.13;;;42.35;;
49548;SDS011;35450;44.518;7.466;2024-01-30T08:38:46;68.45;;;37.00;;
49548;SDS011;35450;44.518;7.466;2024-01-30T08:41:50;67.97;;;36.08;;
49548;SDS011;35450;44.518;7.466;2024-01-30T08:44:54;69.30;;;35.17;;
49548;SDS011;35450;44.518;7.466;2024-01-30T08:47:59;67.00;;;35.92;;
49548;SDS011;35450;44.518;7.466;2024-01-30T08:51:03;66.97;;;35.65;;
49548;SDS011;35450;44.518;7.466;2024-01-30T08:54:11;68.40;;;35.08;;
49548;SDS011;35450;44.518;7.466;2024-01-30T08:57:15;67.88;;;34.00;;
49548;SDS011;35450;44.518;7.466;2024-01-30T09:00:20;60.97;;;31.50;;
49548;SDS011;35450;44.518;7.466;2024-01-30T09:03:24;58.35;;;31.42;;
49548;SDS011;35450;44.518;7.466;2024-01-30T09:06:28;52.67;;;31.02;;
49548;SDS011;35450;44.518;7.466;2024-01-30T09:09:32;60.70;;;31.70;;
49548;SDS011;35450;44.518;7.466;2024-01-30T09:12:36;61.15;;;32.00;;
49548;SDS011;35450;44.518;7.466;2024-01-30T09:15:40;59.22;;;32.15;;
49548;SDS011;35450;44.518;7.466;2024-01-30T09:18:45;60.25;;;31.10;;
49548;SDS011;35450;44.518;7.466;2024-01-30T09:21:49;59.97;;;31.65;;
49548;SDS011;35450;44.518;7.466;2024-01-30T09:24:53;57.78;;;30.55;;
49548;SDS011;35450;44.518;7.466;2024-01-30T09:27:58;66.20;;;33.78;;
49548;SDS011;35450;44.518;7.466;2024-01-30T09:31:02;65.18;;;32.58;;
49548;SDS011;35450;44.518;7.466;2024-01-30T09:34:06;68.05;;;36.55;;
49548;SDS011;35450;44.518;7.466;2024-01-30T09:37:10;64.60;;;34.85;;
49548;SDS011;35450;44.518;7.466;2024-01-30T09:40:14;60.05;;;31.50;;
49548;SDS011;35450;44.518;7.466;2024-01-30T09:43:22;59.85;;;30.85;;
49548;SDS011;35450;44.518;7.466;2024-01-30T09:46:27;57.55;;;30.58;;
49548;SDS011;35450;44.518;7.466;2024-01-30T09:49:34;57.75;;;32.38;;
49548;SDS011;35450;44.518;7.466;2024-01-30T09:52:48;56.17;;;31.00;;
49548;SDS011;35450;44.518;7.466;2024-01-30T09:55:53;49.20;;;27.85;;
49548;SDS011;35450;44.518;7.466;2024-01-30T09:58:57;54.85;;;28.50;;
49548;SDS011;35450;44.518;7.466;2024-01-30T10:02:01;58.13;;;29.70;;
49548;SDS011;35450;44.518;7.466;2024-01-30T10:05:08;47.80;;;28.52;;
49548;SDS011;35450;44.518;7.466;2024-01-30T10:08:12;52.75;;;27.05;;
49548;SDS011;35450;44.518;7.466;2024-01-30T10:11:16;51.03;;;28.17;;
49548;SDS011;35450;44.518;7.466;2024-01-30T10:14:20;55.47;;;29.23;;
49548;SDS011;35450;44.518;7.466;2024-01-30T10:17:25;56.30;;;29.42;;
49548;SDS011;35450;44.518;7.466;2024-01-30T10:20:31;57.70;;;30.42;;
49548;SDS011;35450;44.518;7.466;2024-01-30T10:23:35;55.95;;;28.30;;
49548;SDS011;35450;44.518;7.466;2024-01-30T10:26:40;59.67;;;29.73;;
49548;SDS011;35450;44.518;7.466;2024-01-30T10:29:48;51.90;;;26.90;;
49548;SDS011;35450;44.518;7.466;2024-01-30T10:32:52;54.05;;;29.27;;
49548;SDS011;35450;44.518;7.466;2024-01-30T10:36:05;58.20;;;28.35;;
49548;SDS011;35450;44.518;7.466;2024-01-30T10:39:09;58.58;;;28.25;;
49548;SDS011;35450;44.518;7.466;2024-01-30T10:42:18;60.42;;;29.38;;
49548;SDS011;35450;44.518;7.466;2024-01-30T10:45:22;55.05;;;28.33;;
49548;SDS011;35450;44.518;7.466;2024-01-30T10:48:29;53.17;;;28.55;;
49548;SDS011;35450;44.518;7.466;2024-01-30T10:51:35;58.60;;;30.75;;
49548;SDS011;35450;44.518;7.466;2024-01-30T10:54:41;59.13;;;29.75;;
49548;SDS011;35450;44.518;7.466;2024-01-30T10:57:48;55.20;;;30.30;;
49548;SDS011;35450;44.518;7.466;2024-01-30T11:00:52;58.38;;;31.23;;
49548;SDS011;35450;44.518;7.466;2024-01-30T11:03:57;57.38;;;32.08;;
49548;SDS011;35450;44.518;7.466;2024-01-30T11:07:01;62.47;;;31.13;;
49548;SDS011;35450;44.518;7.466;2024-01-30T11:10:08;58.17;;;34.38;;
49548;SDS011;35450;44.518;7.466;2024-01-30T11:13:15;59.80;;;33.40;;
49548;SDS011;35450;44.518;7.466;2024-01-30T11:16:22;64.68;;;34.25;;
49548;SDS011;35450;44.518;7.466;2024-01-30T11:19:26;61.15;;;33.75;;
49548;SDS011;35450;44.518;7.466;2024-01-30T11:22:30;65.93;;;37.22;;
49548;SDS011;35450;44.518;7.466;2024-01-30T11:25:34;64.70;;;34.15;;
49548;SDS011;35450;44.518;7.466;2024-01-30T11:28:39;61.92;;;32.80;;
49548;SDS011;35450;44.518;7.466;2024-01-30T11:31:53;63.97;;;34.22;;
49548;SDS011;35450;44.518;7.466;2024-01-30T11:35:05;61.50;;;33.40;;
49548;SDS011;35450;44.518;7.466;2024-01-30T11:38:10;62.65;;;33.58;;
49548;SDS011;35450;44.518;7.466;2024-01-30T11:41:16;61.22;;;32.63;;
49548;SDS011;35450;44.518;7.466;2024-01-30T11:44:21;62.20;;;33.60;;
49548;SDS011;35450;44.518;7.466;2024-01-30T11:47:26;61.53;;;33.05;;
49548;SDS011;35450;44.518;7.466;2024-01-30T11:50:35;67.32;;;33.63;;
49548;SDS011;35450;44.518;7.466;2024-01-30T11:53:41;62.85;;;33.15;;
49548;SDS011;35450;44.518;7.466;2024-01-30T11:56:45;53.00;;;29.38;;
49548;SDS011;35450;44.518;7.466;2024-01-30T11:59:49;56.17;;;31.70;;
49548;SDS011;35450;44.518;7.466;2024-01-30T12:02:54;61.50;;;30.55;;
49548;SDS011;35450;44.518;7.466;2024-01-30T12:06:03;60.00;;;30.08;;
49548;SDS011;35450;44.518;7.466;2024-01-30T12:09:08;60.60;;;29.63;;
49548;SDS011;35450;44.518;7.466;2024-01-30T12:12:13;59.35;;;30.40;;
49548;SDS011;35450;44.518;7.466;2024-01-30T12:15:18;58.08;;;29.80;;
49548;SDS011;35450;44.518;7.466;2024-01-30T12:18:25;56.88;;;31.05;;
49548;SDS011;35450;44.518;7.466;2024-01-30T12:21:29;52.38;;;28.02;;
49548;SDS011;35450;44.518;7.466;2024-01-30T12:24:33;54.95;;;26.52;;
49548;SDS011;35450;44.518;7.466;2024-01-30T12:27:39;48.03;;;26.85;;
49548;SDS011;35450;44.518;7.466;2024-01-30T12:30:46;54.05;;;27.95;;
49548;SDS011;35450;44.518;7.466;2024-01-30T12:33:50;48.38;;;25.55;;
49548;SDS011;35450;44.518;7.466;2024-01-30T12:36:54;49.35;;;25.58;;
49548;SDS011;35450;44.518;7.466;2024-01-30T12:39:58;47.10;;;24.00;;
49548;SDS011;35450;44.518;7.466;2024-01-30T12:43:02;49.03;;;27.10;;
49548;SDS011;35450;44.518;7.466;2024-01-30T12:46:07;48.35;;;25.90;;
49548;SDS011;35450;44.518;7.466;2024-01-30T12:49:11;45.35;;;25.17;;
49548;SDS011;35450;44.518;7.466;2024-01-30T12:52:16;45.38;;;24.40;;
49548;SDS011;35450;44.518;7.466;2024-01-30T12:55:20;50.72;;;27.38;;
49548;SDS011;35450;44.518;7.466;2024-01-30T12:58:24;51.90;;;27.90;;
49548;SDS011;35450;44.518;7.466;2024-01-30T13:01:28;55.10;;;27.73;;
49548;SDS011;35450;44.518;7.466;2024-01-30T13:04:32;50.42;;;26.08;;
49548;SDS011;35450;44.518;7.466;2024-01-30T13:07:36;45.55;;;26.05;;
49548;SDS011;35450;44.518;7.466;2024-01-30T13:10:41;52.25;;;28.02;;
49548;SDS011;35450;44.518;7.466;2024-01-30T13:13:44;45.63;;;26.55;;
49548;SDS011;35450;44.518;7.466;2024-01-30T13:16:49;55.25;;;26.77;;
49548;SDS011;35450;44.518;7.466;2024-01-30T13:19:53;46.78;;;24.65;;
49548;SDS011;35450;44.518;7.466;2024-01-30T13:22:58;52.80;;;26.48;;
49548;SDS011;35450;44.518;7.466;2024-01-30T13:26:02;53.60;;;26.40;;
49548;SDS011;35450;44.518;7.466;2024-01-30T13:29:06;50.42;;;27.35;;
49548;SDS011;35450;44.518;7.466;2024-01-30T13:32:10;47.67;;;25.40;;
49548;SDS011;35450;44.518;7.466;2024-01-30T13:35:14;46.03;;;26.13;;
49548;SDS011;35450;44.518;7.466;2024-01-30T13:38:18;48.75;;;25.02;;
49548;SDS011;35450;44.518;7.466;2024-01-30T13:41:22;42.47;;;24.70;;
49548;SDS011;35450;44.518;7.466;2024-01-30T13:44:27;45.15;;;25.42;;
49548;SDS011;35450;44.518;7.466;2024-01-30T13:47:31;42.35;;;25.02;;
49548;SDS011;35450;44.518;7.466;2024-01-30T13:50:35;48.03;;;24.73;;
49548;SDS011;35450;44.518;7.466;2024-01-30T13:53:39;47.40;;;26.67;;
49548;SDS011;35450;44.518;7.466;2024-01-30T13:56:43;52.13;;;27.73;;
49548;SDS011;35450;44.518;7.466;2024-01-30T13:59:47;51.63;;;28.75;;
49548;SDS011;35450;44.518;7.466;2024-01-30T14:02:51;48.47;;;29.02;;
49548;SDS011;35450;44.518;7.466;2024-01-30T14:05:58;52.97;;;30.05;;
49548;SDS011;35450;44.518;7.466;2024-01-30T14:09:02;57.08;;;29.15;;
49548;SDS011;35450;44.518;7.466;2024-01-30T14:12:07;54.88;;;28.83;;
49548;SDS011;35450;44.518;7.466;2024-01-30T14:15:12;52.55;;;26.95;;
49548;SDS011;35450;44.518;7.466;2024-01-30T14:18:16;50.90;;;28.23;;
49548;SDS011;35450;44.518;7.466;2024-01-30T14:21:20;47.42;;;26.02;;
49548;SDS011;35450;44.518;7.466;2024-01-30T14:24:25;52.33;;;29.15;;
49548;SDS011;35450;44.518;7.466;2024-01-30T14:27:29;52.45;;;29.50;;
49548;SDS011;35450;44.518;7.466;2024-01-30T14:30:34;49.28;;;28.17;;
49548;SDS011;35450;44.518;7.466;2024-01-30T14:33:39;51.55;;;28.02;;
49548;SDS011;35450;44.518;7.466;2024-01-30T14:36:43;45.83;;;27.48;;
49548;SDS011;35450;44.518;7.466;2024-01-30T14:39:47;57.72;;;28.50;;
49548;SDS011;35450;44.518;7.466;2024-01-30T14:42:52;47.63;;;26.08;;
49548;SDS011;35450;44.518;7.466;2024-01-30T14:45:56;46.25;;;25.95;;
49548;SDS011;35450;44.518;7.466;2024-01-30T14:49:00;50.15;;;27.70;;
49548;SDS011;35450;44.518;7.466;2024-01-30T14:52:08;46.40;;;26.38;;
49548;SDS011;35450;44.518;7.466;2024-01-30T14:55:14;47.30;;;26.23;;
49548;SDS011;35450;44.518;7.466;2024-01-30T14:58:18;49.95;;;26.63;;
49548;SDS011;35450;44.518;7.466;2024-01-30T15:01:23;43.65;;;25.10;;
49548;SDS011;35450;44.518;7.466;2024-01-30T15:04:27;49.85;;;26.30;;
49548;SDS011;35450;44.518;7.466;2024-01-30T15:07:31;43.88;;;23.67;;
49548;SDS011;35450;44.518;7.466;2024-01-30T15:10:35;45.35;;;24.90;;
49548;SDS011;35450;44.518;7.466;2024-01-30T15:13:39;47.60;;;24.77;;
49548;SDS011;35450;44.518;7.466;2024-01-30T15:16:44;51.28;;;27.67;;
49548;SDS011;35450;44.518;7.466;2024-01-30T15:19:48;50.55;;;28.85;;
49548;SDS011;35450;44.518;7.466;2024-01-30T15:22:54;52.80;;;30.30;;
49548;SDS011;35450;44.518;7.466;2024-01-30T15:25:58;54.67;;;30.25;;
49548;SDS011;35450;44.518;7.466;2024-01-30T15:29:02;55.05;;;31.23;;
49548;SDS011;35450;44.518;7.466;2024-01-30T15:32:06;55.75;;;32.53;;
49548;SDS011;35450;44.518;7.466;2024-01-30T15:35:10;59.03;;;31.33;;
49548;SDS011;35450;44.518;7.466;2024-01-30T15:38:15;63.08;;;30.63;;
49548;SDS011;35450;44.518;7.466;2024-01-30T15:41:21;57.97;;;32.97;;
49548;SDS011;35450;44.518;7.466;2024-01-30T15:44:25;62.05;;;32.15;;
49548;SDS011;35450;44.518;7.466;2024-01-30T15:47:29;58.13;;;33.33;;
49548;SDS011;35450;44.518;7.466;2024-01-30T15:50:34;54.72;;;30.50;;
49548;SDS011;35450;44.518;7.466;2024-01-30T15:53:37;65.47;;;33.47;;
49548;SDS011;35450;44.518;7.466;2024-01-30T15:56:41;62.58;;;33.55;;
49548;SDS011;35450;44.518;7.466;2024-01-30T15:59:46;62.25;;;33.85;;
49548;SDS011;35450;44.518;7.466;2024-01-30T16:02:50;61.63;;;30.60;;
49548;SDS011;35450;44.518;7.466;2024-01-30T16:05:54;56.58;;;30.27;;
49548;SDS011;35450;44.518;7.466;2024-01-30T16:08:58;68.85;;;38.22;;
49548;SDS011;35450;44.518;7.466;2024-01-30T16:12:02;76.53;;;40.35;;
49548;SDS011;35450;44.518;7.466;2024-01-30T16:15:07;60.60;;;33.63;;
49548;SDS011;35450;44.518;7.466;2024-01-30T16:18:11;63.08;;;33.80;;
49548;SDS011;35450;44.518;7.466;2024-01-30T16:21:15;54.80;;;30.63;;
49548;SDS011;35450;44.518;7.466;2024-01-30T16:24:19;62.88;;;32.08;;
49548;SDS011;35450;44.518;7.466;2024-01-30T16:27:26;53.40;;;31.95;;
49548;SDS011;35450;44.518;7.466;2024-01-30T16:30:30;58.65;;;31.52;;
49548;SDS011;35450;44.518;7.466;2024-01-30T16:33:34;56.35;;;30.08;;
49548;SDS011;35450;44.518;7.466;2024-01-30T16:36:38;53.25;;;29.85;;
49548;SDS011;35450;44.518;7.466;2024-01-30T16:39:43;57.88;;;30.70;;
49548;SDS011;35450;44.518;7.466;2024-01-30T16:42:47;59.85;;;30.00;;
49548;SDS011;35450;44.518;7.466;2024-01-30T16:45:51;51.90;;;28.30;;
49548;SDS011;35450;44.518;7.466;2024-01-30T16:48:55;57.85;;;28.30;;
49548;SDS011;35450;44.518;7.466;2024-01-30T16:51:59;52.40;;;29.88;;
49548;SDS011;35450;44.518;7.466;2024-01-30T16:55:04;53.92;;;28.25;;
49548;SDS011;35450;44.518;7.466;2024-01-30T16:58:09;71.18;;;30.67;;
49548;SDS011;35450;44.518;7.466;2024-01-30T17:01:15;55.90;;;29.35;;
49548;SDS011;35450;44.518;7.466;2024-01-30T17:04:19;60.67;;;28.23;;
49548;SDS011;35450;44.518;7.466;2024-01-30T17:07:24;56.58;;;28.08;;
49548;SDS011;35450;44.518;7.466;2024-01-30T17:10:31;44.80;;;26.27;;
49548;SDS011;35450;44.518;7.466;2024-01-30T17:13:36;53.97;;;27.45;;
49548;SDS011;35450;44.518;7.466;2024-01-30T17:16:41;51.70;;;28.17;;
49548;SDS011;35450;44.518;7.466;2024-01-30T17:19:47;57.20;;;29.05;;
49548;SDS011;35450;44.518;7.466;2024-01-30T17:22:51;56.17;;;30.10;;
49548;SDS011;35450;44.518;7.466;2024-01-30T17:25:55;51.47;;;29.48;;
49548;SDS011;35450;44.518;7.466;2024-01-30T17:29:00;60.85;;;31.27;;
49548;SDS011;35450;44.518;7.466;2024-01-30T17:32:04;58.70;;;29.83;;
49548;SDS011;35450;44.518;7.466;2024-01-30T17:35:11;105.03;;;63.97;;
49548;SDS011;35450;44.518;7.466;2024-01-30T17:38:15;77.03;;;42.60;;
49548;SDS011;35450;44.518;7.466;2024-01-30T17:41:19;60.00;;;31.02;;
49548;SDS011;35450;44.518;7.466;2024-01-30T17:44:24;58.53;;;29.95;;
49548;SDS011;35450;44.518;7.466;2024-01-30T17:47:28;65.65;;;34.45;;
49548;SDS011;35450;44.518;7.466;2024-01-30T17:50:32;58.13;;;31.92;;
49548;SDS011;35450;44.518;7.466;2024-01-30T17:53:36;57.80;;;30.52;;
49548;SDS011;35450;44.518;7.466;2024-01-30T17:56:40;61.25;;;31.85;;
49548;SDS011;35450;44.518;7.466;2024-01-30T17:59:44;53.95;;;29.33;;
49548;SDS011;35450;44.518;7.466;2024-01-30T18:02:49;67.57;;;32.53;;
49548;SDS011;35450;44.518;7.466;2024-01-30T18:05:54;57.83;;;30.42;;
49548;SDS011;35450;44.518;7.466;2024-01-30T18:08:58;58.78;;;32.47;;
49548;SDS011;35450;44.518;7.466;2024-01-30T18:12:03;64.93;;;34.17;;
49548;SDS011;35450;44.518;7.466;2024-01-30T18:15:07;67.18;;;34.80;;
49548;SDS011;35450;44.518;7.466;2024-01-30T18:18:11;61.95;;;33.17;;
49548;SDS011;35450;44.518;7.466;2024-01-30T18:21:16;60.72;;;32.63;;
49548;SDS011;35450;44.518;7.466;2024-01-30T18:24:20;64.38;;;33.65;;
49548;SDS011;35450;44.518;7.466;2024-01-30T18:27:25;60.55;;;33.92;;
49548;SDS011;35450;44.518;7.466;2024-01-30T18:30:29;59.40;;;32.38;;
49548;SDS011;35450;44.518;7.466;2024-01-30T18:33:33;64.18;;;32.50;;
49548;SDS011;35450;44.518;7.466;2024-01-30T18:36:37;62.95;;;32.75;;
49548;SDS011;35450;44.518;7.466;2024-01-30T18:39:44;64.55;;;32.60;;
49548;SDS011;35450;44.518;7.466;2024-01-30T18:42:49;60.03;;;31.17;;
49548;SDS011;35450;44.518;7.466;2024-01-30T18:45:53;62.25;;;32.53;;
49548;SDS011;35450;44.518;7.466;2024-01-30T18:48:58;68.97;;;31.65;;
49548;SDS011;35450;44.518;7.466;2024-01-30T18:52:02;64.72;;;30.35;;
